sensor_id;sensor_type;location;lat;lon;timestamp;temperature;humidity
27801;DHT22;15181;49.112;11.930;2022-09-03T00:01:52;11.80;99.90
27801;DHT22;15181;49.112;11.930;2022-09-03T00:04:29;11.80;99.90
27801;DHT22;15181;49.112;11.930;2022-09-03T00:07:04;11.80;99.90
27801;DHT22;15181;49.112;11.930;2022-09-03T00:09:37;11.80;99.90
27801;DHT22;15181;49.112;11.930;2022-09-03T00:12:10;11.60;99.90
27801;DHT22;15181;49.112;11.930;2022-09-03T00:14:40;11.60;99.90
27801;DHT22;15181;49.112;11.930;2022-09-03T00:17:10;11.50;99.90
27801;DHT22;15181;49.112;11.930;2022-09-03T00:19:44;11.40;99.90
27801;DHT22;15181;49.112;11.930;2022-09-03T00:22:18;11.40;99.90
27801;DHT22;15181;49.112;11.930;2022-09-03T00:24:47;11.30;99.90
27801;DHT22;15181;49.112;11.930;2022-09-03T00:27:18;11.20;99.90
27801;DHT22;15181;49.112;11.930;2022-09-03T00:29:49;11.20;99.90
27801;DHT22;15181;49.112;11.930;2022-09-03T00:32:20;11.30;99.90
27801;DHT22;15181;49.112;11.930;2022-09-03T00:34:54;11.20;99.90
27801;DHT22;15181;49.112;11.930;2022-09-03T00:37:23;11.20;99.90
27801;DHT22;15181;49.112;11.930;2022-09-03T00:39:51;11.10;99.90
27801;DHT22;15181;49.112;11.930;2022-09-03T00:42:36;11.00;99.90
27801;DHT22;15181;49.112;11.930;2022-09-03T00:45:19;11.00;99.90
27801;DHT22;15181;49.112;11.930;2022-09-03T00:48:00;10.90;99.90
27801;DHT22;15181;49.112;11.930;2022-09-03T00:50:40;10.90;99.90
27801;DHT22;15181;49.112;11.930;2022-09-03T00:53:16;10.90;99.90
27801;DHT22;15181;49.112;11.930;2022-09-03T00:55:54;10.90;99.90
27801;DHT22;15181;49.112;11.930;2022-09-03T00:58:43;11.00;99.90
27801;DHT22;15181;49.112;11.930;2022-09-03T01:01:23;10.90;99.90
27801;DHT22;15181;49.112;11.930;2022-09-03T01:04:00;10.90;99.90
27801;DHT22;15181;49.112;11.930;2022-09-03T01:06:37;10.80;99.90
27801;DHT22;15181;49.112;11.930;2022-09-03T01:09:20;10.80;99.90
27801;DHT22;15181;49.112;11.930;2022-09-03T01:11:58;10.90;99.90
27801;DHT22;15181;49.112;11.930;2022-09-03T01:14:34;10.80;99.90
27801;DHT22;15181;49.112;11.930;2022-09-03T01:17:09;10.70;99.90
27801;DHT22;15181;49.112;11.930;2022-09-03T01:23:07;10.60;99.90
27801;DHT22;15181;49.112;11.930;2022-09-03T01:25:51;10.60;99.90
27801;DHT22;15181;49.112;11.930;2022-09-03T01:28:32;10.60;99.90
27801;DHT22;15181;49.112;11.930;2022-09-03T01:31:12;10.50;99.90
27801;DHT22;15181;49.112;11.930;2022-09-03T01:33:48;10.40;99.90
27801;DHT22;15181;49.112;11.930;2022-09-03T01:36:20;10.30;99.90
27801;DHT22;15181;49.112;11.930;2022-09-03T01:38:52;10.20;99.90
27801;DHT22;15181;49.112;11.930;2022-09-03T01:41:28;10.20;99.90
27801;DHT22;15181;49.112;11.930;2022-09-03T01:44:20;10.20;99.90
27801;DHT22;15181;49.112;11.930;2022-09-03T01:46:55;10.30;99.90
27801;DHT22;15181;49.112;11.930;2022-09-03T01:49:27;10.30;99.90
27801;DHT22;15181;49.112;11.930;2022-09-03T01:52:01;10.20;99.90
27801;DHT22;15181;49.112;11.930;2022-09-03T01:54:41;10.20;99.90
27801;DHT22;15181;49.112;11.930;2022-09-03T01:57:34;10.20;99.90
27801;DHT22;15181;49.112;11.930;2022-09-03T02:00:09;10.10;99.90
27801;DHT22;15181;49.112;11.930;2022-09-03T02:02:38;10.10;99.90
27801;DHT22;15181;49.112;11.930;2022-09-03T02:05:09;10.10;99.90
27801;DHT22;15181;49.112;11.930;2022-09-03T02:07:40;10.00;99.90
27801;DHT22;15181;49.112;11.930;2022-09-03T02:10:09;9.90;99.90
27801;DHT22;15181;49.112;11.930;2022-09-03T02:12:38;10.00;99.90
27801;DHT22;15181;49.112;11.930;2022-09-03T02:15:12;10.00;99.90
27801;DHT22;15181;49.112;11.930;2022-09-03T02:17:41;10.00;99.90
27801;DHT22;15181;49.112;11.930;2022-09-03T02:20:12;10.00;99.90
27801;DHT22;15181;49.112;11.930;2022-09-03T02:22:42;10.00;99.90
27801;DHT22;15181;49.112;11.930;2022-09-03T02:25:09;10.00;99.90
27801;DHT22;15181;49.112;11.930;2022-09-03T02:27:36;10.10;99.90
27801;DHT22;15181;49.112;11.930;2022-09-03T02:30:04;10.00;99.90
27801;DHT22;15181;49.112;11.930;2022-09-03T02:32:33;10.00;99.90
27801;DHT22;15181;49.112;11.930;2022-09-03T02:35:00;10.00;99.90
27801;DHT22;15181;49.112;11.930;2022-09-03T02:37:27;10.00;99.90
27801;DHT22;15181;49.112;11.930;2022-09-03T02:39:54;10.00;99.90
27801;DHT22;15181;49.112;11.930;2022-09-03T02:42:22;10.00;99.90
27801;DHT22;15181;49.112;11.930;2022-09-03T02:44:52;10.10;99.90
27801;DHT22;15181;49.112;11.930;2022-09-03T02:47:22;10.10;99.90
27801;DHT22;15181;49.112;11.930;2022-09-03T02:49:56;10.10;99.90
27801;DHT22;15181;49.112;11.930;2022-09-03T02:52:23;10.10;99.90
27801;DHT22;15181;49.112;11.930;2022-09-03T02:54:50;10.20;99.90
27801;DHT22;15181;49.112;11.930;2022-09-03T02:57:17;10.20;99.90
27801;DHT22;15181;49.112;11.930;2022-09-03T02:59:44;10.10;99.90
27801;DHT22;15181;49.112;11.930;2022-09-03T03:02:12;10.00;99.90
27801;DHT22;15181;49.112;11.930;2022-09-03T03:04:39;10.00;99.90
27801;DHT22;15181;49.112;11.930;2022-09-03T03:07:07;10.00;99.90
27801;DHT22;15181;49.112;11.930;2022-09-03T03:09:34;10.00;99.90
27801;DHT22;15181;49.112;11.930;2022-09-03T03:12:02;10.00;99.90
27801;DHT22;15181;49.112;11.930;2022-09-03T03:14:29;10.10;99.90
27801;DHT22;15181;49.112;11.930;2022-09-03T03:16:56;10.20;99.90
27801;DHT22;15181;49.112;11.930;2022-09-03T03:19:22;10.20;99.90
27801;DHT22;15181;49.112;11.930;2022-09-03T03:21:50;10.20;99.90
27801;DHT22;15181;49.112;11.930;2022-09-03T03:24:18;10.30;99.90
27801;DHT22;15181;49.112;11.930;2022-09-03T03:26:45;10.30;99.90
27801;DHT22;15181;49.112;11.930;2022-09-03T03:29:15;10.40;99.90
27801;DHT22;15181;49.112;11.930;2022-09-03T03:31:43;10.40;99.90
27801;DHT22;15181;49.112;11.930;2022-09-03T03:34:09;10.40;99.90
27801;DHT22;15181;49.112;11.930;2022-09-03T03:36:37;10.50;99.90
27801;DHT22;15181;49.112;11.930;2022-09-03T03:39:04;10.50;99.90
27801;DHT22;15181;49.112;11.930;2022-09-03T03:41:33;10.50;99.90
27801;DHT22;15181;49.112;11.930;2022-09-03T03:44:04;10.60;99.90
27801;DHT22;15181;49.112;11.930;2022-09-03T03:46:34;10.70;99.90
27801;DHT22;15181;49.112;11.930;2022-09-03T03:49:01;10.70;99.90
27801;DHT22;15181;49.112;11.930;2022-09-03T03:51:28;10.70;99.90
27801;DHT22;15181;49.112;11.930;2022-09-03T03:53:57;10.70;99.90
27801;DHT22;15181;49.112;11.930;2022-09-03T03:56:25;10.70;99.90
27801;DHT22;15181;49.112;11.930;2022-09-03T03:58:54;10.80;99.90
27801;DHT22;15181;49.112;11.930;2022-09-03T04:01:23;10.80;99.90
27801;DHT22;15181;49.112;11.930;2022-09-03T04:03:50;10.70;99.90
27801;DHT22;15181;49.112;11.930;2022-09-03T04:06:19;10.70;99.90
27801;DHT22;15181;49.112;11.930;2022-09-03T04:08:47;10.80;99.90
27801;DHT22;15181;49.112;11.930;2022-09-03T04:11:16;10.80;99.90
27801;DHT22;15181;49.112;11.930;2022-09-03T04:13:44;10.90;99.90
27801;DHT22;15181;49.112;11.930;2022-09-03T04:16:15;11.00;99.90
27801;DHT22;15181;49.112;11.930;2022-09-03T04:18:43;11.00;99.90
27801;DHT22;15181;49.112;11.930;2022-09-03T04:21:11;11.00;99.90
27801;DHT22;15181;49.112;11.930;2022-09-03T04:23:40;11.10;99.90
27801;DHT22;15181;49.112;11.930;2022-09-03T04:26:09;11.10;99.90
27801;DHT22;15181;49.112;11.930;2022-09-03T04:28:37;11.10;99.90
27801;DHT22;15181;49.112;11.930;2022-09-03T04:31:05;11.20;99.90
27801;DHT22;15181;49.112;11.930;2022-09-03T04:33:34;11.20;99.90
27801;DHT22;15181;49.112;11.930;2022-09-03T04:36:08;11.20;99.90
27801;DHT22;15181;49.112;11.930;2022-09-03T04:38:37;11.30;99.90
27801;DHT22;15181;49.112;11.930;2022-09-03T04:41:06;11.30;99.90
27801;DHT22;15181;49.112;11.930;2022-09-03T04:43:33;11.30;99.90
27801;DHT22;15181;49.112;11.930;2022-09-03T04:46:02;11.30;99.90
27801;DHT22;15181;49.112;11.930;2022-09-03T04:48:30;11.30;99.90
27801;DHT22;15181;49.112;11.930;2022-09-03T04:51:03;11.20;99.90
27801;DHT22;15181;49.112;11.930;2022-09-03T04:53:31;11.20;99.90
27801;DHT22;15181;49.112;11.930;2022-09-03T04:55:58;11.10;99.90
27801;DHT22;15181;49.112;11.930;2022-09-03T04:58:25;11.10;99.90
27801;DHT22;15181;49.112;11.930;2022-09-03T05:00:52;11.10;99.90
27801;DHT22;15181;49.112;11.930;2022-09-03T05:03:20;11.20;99.90
27801;DHT22;15181;49.112;11.930;2022-09-03T05:05:54;11.10;99.90
27801;DHT22;15181;49.112;11.930;2022-09-03T05:08:22;11.10;99.90
27801;DHT22;15181;49.112;11.930;2022-09-03T05:10:57;11.10;99.90
27801;DHT22;15181;49.112;11.930;2022-09-03T05:13:25;11.00;99.90
27801;DHT22;15181;49.112;11.930;2022-09-03T05:15:58;10.80;99.90
27801;DHT22;15181;49.112;11.930;2022-09-03T05:18:25;10.90;99.90
27801;DHT22;15181;49.112;11.930;2022-09-03T05:20:57;10.90;99.90
27801;DHT22;15181;49.112;11.930;2022-09-03T05:23:25;10.90;99.90
27801;DHT22;15181;49.112;11.930;2022-09-03T05:25:56;11.00;99.90
27801;DHT22;15181;49.112;11.930;2022-09-03T05:28:24;11.20;99.90
27801;DHT22;15181;49.112;11.930;2022-09-03T05:31:02;11.30;99.90
27801;DHT22;15181;49.112;11.930;2022-09-03T05:33:32;11.50;99.90
27801;DHT22;15181;49.112;11.930;2022-09-03T05:36:00;11.70;99.90
27801;DHT22;15181;49.112;11.930;2022-09-03T05:38:29;11.80;99.90
27801;DHT22;15181;49.112;11.930;2022-09-03T05:40:57;12.00;99.90
27801;DHT22;15181;49.112;11.930;2022-09-03T05:43:25;12.00;99.90
27801;DHT22;15181;49.112;11.930;2022-09-03T05:45:56;12.10;99.90
27801;DHT22;15181;49.112;11.930;2022-09-03T05:48:23;12.10;99.90
27801;DHT22;15181;49.112;11.930;2022-09-03T05:50:58;12.20;99.90
27801;DHT22;15181;49.112;11.930;2022-09-03T05:53:25;12.20;99.90
27801;DHT22;15181;49.112;11.930;2022-09-03T05:55:58;12.30;99.90
27801;DHT22;15181;49.112;11.930;2022-09-03T05:58:29;12.40;99.90
27801;DHT22;15181;49.112;11.930;2022-09-03T06:00:56;12.40;99.90
27801;DHT22;15181;49.112;11.930;2022-09-03T06:03:23;12.50;99.90
27801;DHT22;15181;49.112;11.930;2022-09-03T06:05:50;12.60;99.90
27801;DHT22;15181;49.112;11.930;2022-09-03T06:08:18;12.60;99.90
27801;DHT22;15181;49.112;11.930;2022-09-03T06:10:45;12.70;99.90
27801;DHT22;15181;49.112;11.930;2022-09-03T06:13:13;12.80;99.90
27801;DHT22;15181;49.112;11.930;2022-09-03T06:15:40;13.00;99.90
27801;DHT22;15181;49.112;11.930;2022-09-03T06:18:07;13.10;99.90
27801;DHT22;15181;49.112;11.930;2022-09-03T06:20:34;13.10;99.90
27801;DHT22;15181;49.112;11.930;2022-09-03T06:23:01;13.20;99.90
27801;DHT22;15181;49.112;11.930;2022-09-03T06:25:28;13.40;99.90
27801;DHT22;15181;49.112;11.930;2022-09-03T06:27:56;13.30;99.90
27801;DHT22;15181;49.112;11.930;2022-09-03T06:30:25;13.50;99.90
27801;DHT22;15181;49.112;11.930;2022-09-03T06:32:52;13.60;99.90
27801;DHT22;15181;49.112;11.930;2022-09-03T06:35:19;13.70;99.90
27801;DHT22;15181;49.112;11.930;2022-09-03T06:37:46;13.70;99.90
27801;DHT22;15181;49.112;11.930;2022-09-03T06:40:18;13.80;99.90
27801;DHT22;15181;49.112;11.930;2022-09-03T06:42:58;13.70;99.90
27801;DHT22;15181;49.112;11.930;2022-09-03T06:45:31;13.80;99.90
27801;DHT22;15181;49.112;11.930;2022-09-03T06:48:02;14.10;99.90
27801;DHT22;15181;49.112;11.930;2022-09-03T06:50:32;14.20;99.90
27801;DHT22;15181;49.112;11.930;2022-09-03T06:53:04;14.40;99.90
27801;DHT22;15181;49.112;11.930;2022-09-03T06:55:33;14.60;99.90
27801;DHT22;15181;49.112;11.930;2022-09-03T06:58:16;14.80;99.90
27801;DHT22;15181;49.112;11.930;2022-09-03T07:00:50;14.90;99.90
27801;DHT22;15181;49.112;11.930;2022-09-03T07:03:19;15.10;99.90
27801;DHT22;15181;49.112;11.930;2022-09-03T07:05:52;15.10;99.90
27801;DHT22;15181;49.112;11.930;2022-09-03T07:08:28;15.10;99.90
27801;DHT22;15181;49.112;11.930;2022-09-03T07:10:57;15.20;99.90
27801;DHT22;15181;49.112;11.930;2022-09-03T07:13:24;15.50;99.90
27801;DHT22;15181;49.112;11.930;2022-09-03T07:15:59;15.70;99.90
27801;DHT22;15181;49.112;11.930;2022-09-03T07:18:26;15.80;99.90
27801;DHT22;15181;49.112;11.930;2022-09-03T07:20:57;15.60;99.90
27801;DHT22;15181;49.112;11.930;2022-09-03T07:23:25;15.50;99.90
27801;DHT22;15181;49.112;11.930;2022-09-03T07:25:54;15.60;99.90
27801;DHT22;15181;49.112;11.930;2022-09-03T07:28:21;15.60;99.90
27801;DHT22;15181;49.112;11.930;2022-09-03T07:30:49;15.70;99.90
27801;DHT22;15181;49.112;11.930;2022-09-03T07:33:18;16.00;99.90
27801;DHT22;15181;49.112;11.930;2022-09-03T07:35:45;15.90;99.90
27801;DHT22;15181;49.112;11.930;2022-09-03T07:38:16;15.90;99.90
27801;DHT22;15181;49.112;11.930;2022-09-03T07:40:44;16.00;99.90
27801;DHT22;15181;49.112;11.930;2022-09-03T07:43:11;16.00;99.90
27801;DHT22;15181;49.112;11.930;2022-09-03T07:45:38;16.30;99.90
27801;DHT22;15181;49.112;11.930;2022-09-03T07:48:05;16.60;99.90
27801;DHT22;15181;49.112;11.930;2022-09-03T07:50:33;16.80;99.90
27801;DHT22;15181;49.112;11.930;2022-09-03T07:53:03;17.00;99.90
27801;DHT22;15181;49.112;11.930;2022-09-03T07:55:30;17.10;99.90
27801;DHT22;15181;49.112;11.930;2022-09-03T07:57:57;17.30;99.90
27801;DHT22;15181;49.112;11.930;2022-09-03T08:00:24;17.40;99.90
27801;DHT22;15181;49.112;11.930;2022-09-03T08:02:51;17.50;99.90
27801;DHT22;15181;49.112;11.930;2022-09-03T08:05:19;17.50;99.90
27801;DHT22;15181;49.112;11.930;2022-09-03T08:07:47;17.60;99.90
27801;DHT22;15181;49.112;11.930;2022-09-03T08:10:15;17.60;99.90
27801;DHT22;15181;49.112;11.930;2022-09-03T08:12:42;17.30;99.90
27801;DHT22;15181;49.112;11.930;2022-09-03T08:15:09;17.40;99.90
27801;DHT22;15181;49.112;11.930;2022-09-03T08:17:35;17.60;99.90
27801;DHT22;15181;49.112;11.930;2022-09-03T08:20:03;17.80;99.90
27801;DHT22;15181;49.112;11.930;2022-09-03T08:22:30;18.00;99.90
27801;DHT22;15181;49.112;11.930;2022-09-03T08:24:58;18.20;99.90
27801;DHT22;15181;49.112;11.930;2022-09-03T08:27:25;18.50;99.90
27801;DHT22;15181;49.112;11.930;2022-09-03T08:29:52;18.60;99.90
27801;DHT22;15181;49.112;11.930;2022-09-03T08:32:19;18.80;99.90
27801;DHT22;15181;49.112;11.930;2022-09-03T08:34:45;19.00;99.90
27801;DHT22;15181;49.112;11.930;2022-09-03T08:37:12;19.10;99.90
27801;DHT22;15181;49.112;11.930;2022-09-03T08:39:39;19.10;99.90
27801;DHT22;15181;49.112;11.930;2022-09-03T08:42:21;19.20;99.90
27801;DHT22;15181;49.112;11.930;2022-09-03T08:44:53;19.20;99.90
27801;DHT22;15181;49.112;11.930;2022-09-03T08:47:22;19.30;99.90
27801;DHT22;15181;49.112;11.930;2022-09-03T08:49:53;19.40;99.90
27801;DHT22;15181;49.112;11.930;2022-09-03T08:52:28;19.50;99.90
27801;DHT22;15181;49.112;11.930;2022-09-03T08:55:02;19.70;99.90
27801;DHT22;15181;49.112;11.930;2022-09-03T08:57:40;19.80;99.90
27801;DHT22;15181;49.112;11.930;2022-09-03T09:00:09;19.90;99.90
27801;DHT22;15181;49.112;11.930;2022-09-03T09:02:44;20.00;99.90
27801;DHT22;15181;49.112;11.930;2022-09-03T09:05:16;20.10;99.90
27801;DHT22;15181;49.112;11.930;2022-09-03T09:07:49;20.10;99.90
27801;DHT22;15181;49.112;11.930;2022-09-03T09:10:23;20.10;99.90
27801;DHT22;15181;49.112;11.930;2022-09-03T09:13:02;20.10;99.90
27801;DHT22;15181;49.112;11.930;2022-09-03T09:15:38;20.00;99.90
27801;DHT22;15181;49.112;11.930;2022-09-03T09:18:16;20.10;99.90
27801;DHT22;15181;49.112;11.930;2022-09-03T09:20:48;20.20;99.90
27801;DHT22;15181;49.112;11.930;2022-09-03T09:23:22;20.30;99.90
27801;DHT22;15181;49.112;11.930;2022-09-03T09:25:52;20.30;99.90
27801;DHT22;15181;49.112;11.930;2022-09-03T09:28:23;20.30;99.90
27801;DHT22;15181;49.112;11.930;2022-09-03T09:30:54;20.40;99.90
27801;DHT22;15181;49.112;11.930;2022-09-03T09:33:22;20.50;99.90
27801;DHT22;15181;49.112;11.930;2022-09-03T09:35:50;20.40;99.90
27801;DHT22;15181;49.112;11.930;2022-09-03T09:38:27;20.50;99.90
27801;DHT22;15181;49.112;11.930;2022-09-03T09:40:54;20.60;99.90
27801;DHT22;15181;49.112;11.930;2022-09-03T09:43:24;20.70;99.90
27801;DHT22;15181;49.112;11.930;2022-09-03T09:45:52;20.70;99.90
27801;DHT22;15181;49.112;11.930;2022-09-03T09:48:22;20.80;99.90
27801;DHT22;15181;49.112;11.930;2022-09-03T09:51:06;20.90;99.90
27801;DHT22;15181;49.112;11.930;2022-09-03T09:53:34;20.90;99.90
27801;DHT22;15181;49.112;11.930;2022-09-03T09:56:02;21.00;99.90
27801;DHT22;15181;49.112;11.930;2022-09-03T09:58:31;21.00;99.90
27801;DHT22;15181;49.112;11.930;2022-09-03T10:01:04;21.10;99.90
27801;DHT22;15181;49.112;11.930;2022-09-03T10:03:46;21.20;99.90
27801;DHT22;15181;49.112;11.930;2022-09-03T10:06:14;21.30;99.90
27801;DHT22;15181;49.112;11.930;2022-09-03T10:09:05;21.50;99.90
27801;DHT22;15181;49.112;11.930;2022-09-03T10:11:33;21.60;99.90
27801;DHT22;15181;49.112;11.930;2022-09-03T10:14:04;21.70;99.90
27801;DHT22;15181;49.112;11.930;2022-09-03T10:16:36;21.80;99.90
27801;DHT22;15181;49.112;11.930;2022-09-03T10:19:09;21.80;99.90
27801;DHT22;15181;49.112;11.930;2022-09-03T10:21:42;21.90;99.90
27801;DHT22;15181;49.112;11.930;2022-09-03T10:24:28;22.00;99.90
27801;DHT22;15181;49.112;11.930;2022-09-03T10:26:55;22.10;99.90
27801;DHT22;15181;49.112;11.930;2022-09-03T10:29:24;22.10;99.90
27801;DHT22;15181;49.112;11.930;2022-09-03T10:32:13;22.10;99.90
27801;DHT22;15181;49.112;11.930;2022-09-03T10:34:51;22.00;99.90
27801;DHT22;15181;49.112;11.930;2022-09-03T10:37:28;21.80;99.90
27801;DHT22;15181;49.112;11.930;2022-09-03T10:40:19;21.70;99.90
27801;DHT22;15181;49.112;11.930;2022-09-03T10:43:03;21.70;99.90
27801;DHT22;15181;49.112;11.930;2022-09-03T10:45:38;21.70;99.90
27801;DHT22;15181;49.112;11.930;2022-09-03T10:48:26;21.70;99.90
27801;DHT22;15181;49.112;11.930;2022-09-03T10:50:59;21.80;99.90
27801;DHT22;15181;49.112;11.930;2022-09-03T10:53:38;22.00;99.90
27801;DHT22;15181;49.112;11.930;2022-09-03T10:56:14;22.20;99.90
27801;DHT22;15181;49.112;11.930;2022-09-03T10:59:04;22.30;99.90
27801;DHT22;15181;49.112;11.930;2022-09-03T11:01:40;22.30;99.90
27801;DHT22;15181;49.112;11.930;2022-09-03T11:04:19;22.40;99.90
27801;DHT22;15181;49.112;11.930;2022-09-03T11:06:51;22.40;99.90
27801;DHT22;15181;49.112;11.930;2022-09-03T11:09:21;22.40;99.90
27801;DHT22;15181;49.112;11.930;2022-09-03T11:11:53;22.40;99.90
27801;DHT22;15181;49.112;11.930;2022-09-03T11:14:29;22.40;99.90
27801;DHT22;15181;49.112;11.930;2022-09-03T11:17:02;22.40;99.90
27801;DHT22;15181;49.112;11.930;2022-09-03T11:19:33;22.40;99.90
27801;DHT22;15181;49.112;11.930;2022-09-03T11:22:03;22.40;99.90
27801;DHT22;15181;49.112;11.930;2022-09-03T11:24:33;22.40;99.90
27801;DHT22;15181;49.112;11.930;2022-09-03T11:27:18;22.40;99.90
27801;DHT22;15181;49.112;11.930;2022-09-03T11:29:50;22.40;99.90
27801;DHT22;15181;49.112;11.930;2022-09-03T11:32:24;22.60;99.90
27801;DHT22;15181;49.112;11.930;2022-09-03T11:34:54;22.60;99.90
27801;DHT22;15181;49.112;11.930;2022-09-03T11:37:23;22.70;99.90
27801;DHT22;15181;49.112;11.930;2022-09-03T11:39:55;22.90;99.90
27801;DHT22;15181;49.112;11.930;2022-09-03T11:42:29;22.90;99.90
27801;DHT22;15181;49.112;11.930;2022-09-03T11:45:10;22.90;99.90
27801;DHT22;15181;49.112;11.930;2022-09-03T11:47:41;23.00;99.90
27801;DHT22;15181;49.112;11.930;2022-09-03T11:50:17;23.10;99.90
27801;DHT22;15181;49.112;11.930;2022-09-03T11:52:46;23.20;99.90
27801;DHT22;15181;49.112;11.930;2022-09-03T11:55:28;23.20;99.90
27801;DHT22;15181;49.112;11.930;2022-09-03T11:57:56;23.30;99.90
27801;DHT22;15181;49.112;11.930;2022-09-03T12:00:24;23.30;99.90
27801;DHT22;15181;49.112;11.930;2022-09-03T12:03:00;23.30;99.90
27801;DHT22;15181;49.112;11.930;2022-09-03T12:05:34;23.20;99.90
27801;DHT22;15181;49.112;11.930;2022-09-03T12:11:20;23.10;99.90
27801;DHT22;15181;49.112;11.930;2022-09-03T12:13:55;23.20;99.90
27801;DHT22;15181;49.112;11.930;2022-09-03T12:16:53;23.10;99.90
27801;DHT22;15181;49.112;11.930;2022-09-03T12:19:31;23.00;99.90
27801;DHT22;15181;49.112;11.930;2022-09-03T12:22:01;23.00;99.90
27801;DHT22;15181;49.112;11.930;2022-09-03T12:24:30;22.80;99.90
27801;DHT22;15181;49.112;11.930;2022-09-03T12:27:00;22.80;99.90
27801;DHT22;15181;49.112;11.930;2022-09-03T12:29:29;22.70;99.90
27801;DHT22;15181;49.112;11.930;2022-09-03T12:32:05;22.70;99.90
27801;DHT22;15181;49.112;11.930;2022-09-03T12:34:34;22.60;99.90
27801;DHT22;15181;49.112;11.930;2022-09-03T12:37:01;22.70;99.90
27801;DHT22;15181;49.112;11.930;2022-09-03T12:39:28;22.60;99.90
27801;DHT22;15181;49.112;11.930;2022-09-03T12:41:59;22.60;99.90
27801;DHT22;15181;49.112;11.930;2022-09-03T12:44:29;22.60;99.90
27801;DHT22;15181;49.112;11.930;2022-09-03T12:47:02;22.60;99.90
27801;DHT22;15181;49.112;11.930;2022-09-03T12:49:35;22.60;99.90
27801;DHT22;15181;49.112;11.930;2022-09-03T12:52:07;22.50;99.90
27801;DHT22;15181;49.112;11.930;2022-09-03T12:54:41;22.50;99.90
27801;DHT22;15181;49.112;11.930;2022-09-03T12:57:18;22.60;99.90
27801;DHT22;15181;49.112;11.930;2022-09-03T12:59:47;22.60;99.90
27801;DHT22;15181;49.112;11.930;2022-09-03T13:02:19;22.70;99.90
27801;DHT22;15181;49.112;11.930;2022-09-03T13:04:49;22.80;99.90
27801;DHT22;15181;49.112;11.930;2022-09-03T13:07:23;22.80;99.90
27801;DHT22;15181;49.112;11.930;2022-09-03T13:10:00;22.80;99.90
27801;DHT22;15181;49.112;11.930;2022-09-03T13:12:32;22.80;99.90
27801;DHT22;15181;49.112;11.930;2022-09-03T13:15:05;22.80;99.90
27801;DHT22;15181;49.112;11.930;2022-09-03T13:17:51;22.80;99.90
27801;DHT22;15181;49.112;11.930;2022-09-03T13:20:32;22.70;99.90
27801;DHT22;15181;49.112;11.930;2022-09-03T13:23:10;22.60;99.90
27801;DHT22;15181;49.112;11.930;2022-09-03T13:25:47;22.50;99.90
27801;DHT22;15181;49.112;11.930;2022-09-03T13:28:29;22.40;99.90
27801;DHT22;15181;49.112;11.930;2022-09-03T13:31:07;22.30;99.90
27801;DHT22;15181;49.112;11.930;2022-09-03T13:33:40;22.20;99.90
27801;DHT22;15181;49.112;11.930;2022-09-03T13:36:15;22.10;99.90
27801;DHT22;15181;49.112;11.930;2022-09-03T13:38:45;22.10;99.90
27801;DHT22;15181;49.112;11.930;2022-09-03T13:41:19;22.00;99.90
27801;DHT22;15181;49.112;11.930;2022-09-03T13:43:59;22.00;99.90
27801;DHT22;15181;49.112;11.930;2022-09-03T13:46:40;21.90;99.90
27801;DHT22;15181;49.112;11.930;2022-09-03T13:52:06;21.60;99.90
27801;DHT22;15181;49.112;11.930;2022-09-03T13:54:38;21.50;99.90
27801;DHT22;15181;49.112;11.930;2022-09-03T13:57:18;21.20;99.90
27801;DHT22;15181;49.112;11.930;2022-09-03T13:59:52;21.20;99.90
27801;DHT22;15181;49.112;11.930;2022-09-03T14:02:27;21.20;99.90
27801;DHT22;15181;49.112;11.930;2022-09-03T14:05:06;21.30;99.90
27801;DHT22;15181;49.112;11.930;2022-09-03T14:07:46;21.30;99.90
27801;DHT22;15181;49.112;11.930;2022-09-03T14:10:23;21.40;99.90
27801;DHT22;15181;49.112;11.930;2022-09-03T14:13:05;21.30;99.90
27801;DHT22;15181;49.112;11.930;2022-09-03T14:15:39;21.30;99.90
27801;DHT22;15181;49.112;11.930;2022-09-03T14:18:13;21.20;99.90
27801;DHT22;15181;49.112;11.930;2022-09-03T14:20:46;21.20;99.90
27801;DHT22;15181;49.112;11.930;2022-09-03T14:23:30;21.20;99.90
27801;DHT22;15181;49.112;11.930;2022-09-03T14:26:00;21.10;99.90
27801;DHT22;15181;49.112;11.930;2022-09-03T14:28:30;21.10;99.90
27801;DHT22;15181;49.112;11.930;2022-09-03T14:31:07;21.00;99.90
27801;DHT22;15181;49.112;11.930;2022-09-03T14:33:44;21.00;99.90
27801;DHT22;15181;49.112;11.930;2022-09-03T14:36:22;21.00;99.90
27801;DHT22;15181;49.112;11.930;2022-09-03T14:39:11;21.00;99.90
27801;DHT22;15181;49.112;11.930;2022-09-03T14:41:53;20.90;99.90
27801;DHT22;15181;49.112;11.930;2022-09-03T14:47:38;21.00;99.90
27801;DHT22;15181;49.112;11.930;2022-09-03T14:50:21;21.00;99.90
27801;DHT22;15181;49.112;11.930;2022-09-03T14:53:13;21.00;99.90
27801;DHT22;15181;49.112;11.930;2022-09-03T14:56:00;21.00;99.90
27801;DHT22;15181;49.112;11.930;2022-09-03T14:58:42;21.00;99.90
27801;DHT22;15181;49.112;11.930;2022-09-03T15:01:16;21.00;99.90
27801;DHT22;15181;49.112;11.930;2022-09-03T15:04:24;21.00;99.90
27801;DHT22;15181;49.112;11.930;2022-09-03T15:07:19;20.90;99.90
27801;DHT22;15181;49.112;11.930;2022-09-03T15:09:54;20.90;99.90
27801;DHT22;15181;49.112;11.930;2022-09-03T15:12:33;20.90;99.90
27801;DHT22;15181;49.112;11.930;2022-09-03T15:15:06;20.80;99.90
27801;DHT22;15181;49.112;11.930;2022-09-03T15:17:47;20.80;99.90
27801;DHT22;15181;49.112;11.930;2022-09-03T15:20:21;20.80;99.90
27801;DHT22;15181;49.112;11.930;2022-09-03T15:26:04;20.80;99.90
27801;DHT22;15181;49.112;11.930;2022-09-03T15:28:48;20.70;99.90
27801;DHT22;15181;49.112;11.930;2022-09-03T15:31:21;20.80;99.90
27801;DHT22;15181;49.112;11.930;2022-09-03T15:33:55;20.80;99.90
27801;DHT22;15181;49.112;11.930;2022-09-03T15:36:26;20.90;99.90
27801;DHT22;15181;49.112;11.930;2022-09-03T15:39:00;20.90;99.90
27801;DHT22;15181;49.112;11.930;2022-09-03T15:41:33;21.00;99.90
27801;DHT22;15181;49.112;11.930;2022-09-03T15:44:05;20.90;99.90
27801;DHT22;15181;49.112;11.930;2022-09-03T15:46:48;20.80;99.90
27801;DHT22;15181;49.112;11.930;2022-09-03T15:49:26;20.90;99.90
27801;DHT22;15181;49.112;11.930;2022-09-03T15:52:01;20.90;99.90
27801;DHT22;15181;49.112;11.930;2022-09-03T15:54:36;21.00;99.90
27801;DHT22;15181;49.112;11.930;2022-09-03T15:57:11;21.00;99.90
27801;DHT22;15181;49.112;11.930;2022-09-03T15:59:45;21.00;99.90
27801;DHT22;15181;49.112;11.930;2022-09-03T16:02:17;21.00;99.90
27801;DHT22;15181;49.112;11.930;2022-09-03T16:05:04;20.90;99.90